sensor_id;sensor_type;location;lat;lon;timestamp;pressure;altitude;pressure_sealevel;temperature;humidity
69784;BME280;57054;51.978;4.498;2023-04-21T00:02:17;101605.53;;;7.89;88.56
69784;BME280;57054;51.978;4.498;2023-04-21T00:04:43;101583.81;;;7.87;89.04
69784;BME280;57054;51.978;4.498;2023-04-21T00:07:10;101580.38;;;7.86;88.94
69784;BME280;57054;51.978;4.498;2023-04-21T00:09:35;101576.84;;;7.87;89.06
69784;BME280;57054;51.978;4.498;2023-04-21T00:12:01;101584.69;;;7.87;89.18
69784;BME280;57054;51.978;4.498;2023-04-21T00:14:26;101594.19;;;7.92;89.00
69784;BME280;57054;51.978;4.498;2023-04-21T00:16:52;101588.06;;;7.93;88.92
69784;BME280;57054;51.978;4.498;2023-04-21T00:19:18;101600.25;;;7.92;88.96
69784;BME280;57054;51.978;4.498;2023-04-21T00:21:44;101601.13;;;7.91;89.17
69784;BME280;57054;51.978;4.498;2023-04-21T00:24:10;101602.94;;;7.87;89.89
69784;BME280;57054;51.978;4.498;2023-04-21T00:26:35;101608.22;;;7.84;90.45
69784;BME280;57054;51.978;4.498;2023-04-21T00:29:00;101607.41;;;7.82;90.88
69784;BME280;57054;51.978;4.498;2023-04-21T00:31:27;101607.47;;;7.76;91.80
69784;BME280;57054;51.978;4.498;2023-04-21T00:33:52;101595.38;;;7.72;92.45
69784;BME280;57054;51.978;4.498;2023-04-21T00:36:18;101601.47;;;7.71;92.46
69784;BME280;57054;51.978;4.498;2023-04-21T00:38:43;101597.16;;;7.70;92.85
69784;BME280;57054;51.978;4.498;2023-04-21T00:41:09;101595.44;;;7.69;93.41
69784;BME280;57054;51.978;4.498;2023-04-21T00:43:34;101573.72;;;7.68;93.41
69784;BME280;57054;51.978;4.498;2023-04-21T00:46:00;101575.47;;;7.68;93.70
69784;BME280;57054;51.978;4.498;2023-04-21T00:48:25;101559.84;;;7.66;93.81
69784;BME280;57054;51.978;4.498;2023-04-21T00:50:51;101560.72;;;7.65;94.17
69784;BME280;57054;51.978;4.498;2023-04-21T00:53:17;101559.84;;;7.66;93.93
69784;BME280;57054;51.978;4.498;2023-04-21T00:55:43;101552.88;;;7.68;94.19
69784;BME280;57054;51.978;4.498;2023-04-21T00:58:09;101549.38;;;7.69;93.88
69784;BME280;57054;51.978;4.498;2023-04-21T01:00:36;101550.25;;;7.68;93.92
69784;BME280;57054;51.978;4.498;2023-04-21T01:03:03;101545.06;;;7.67;94.21
69784;BME280;57054;51.978;4.498;2023-04-21T01:05:30;101544.22;;;7.66;94.40
69784;BME280;57054;51.978;4.498;2023-04-21T01:07:55;101540.69;;;7.67;94.36
69784;BME280;57054;51.978;4.498;2023-04-21T01:10:21;101552.00;;;7.68;94.77
69784;BME280;57054;51.978;4.498;2023-04-21T01:12:47;101545.91;;;7.67;94.56
69784;BME280;57054;51.978;4.498;2023-04-21T01:15:17;101552.00;;;7.69;94.43
69784;BME280;57054;51.978;4.498;2023-04-21T01:17:42;101548.50;;;7.69;94.59
69784;BME280;57054;51.978;4.498;2023-04-21T01:20:11;101550.25;;;7.68;94.91
69784;BME280;57054;51.978;4.498;2023-04-21T01:22:37;101552.00;;;7.68;94.95
69784;BME280;57054;51.978;4.498;2023-04-21T01:25:04;101549.44;;;7.66;95.39
69784;BME280;57054;51.978;4.498;2023-04-21T01:27:30;101550.28;;;7.67;95.52
69784;BME280;57054;51.978;4.498;2023-04-21T01:29:55;101546.81;;;7.66;95.78
69784;BME280;57054;51.978;4.498;2023-04-21T01:32:24;101551.19;;;7.66;95.96
69784;BME280;57054;51.978;4.498;2023-04-21T01:34:50;101550.28;;;7.67;96.22
69784;BME280;57054;51.978;4.498;2023-04-21T01:37:18;101541.59;;;7.66;96.46
69784;BME280;57054;51.978;4.498;2023-04-21T01:39:46;101545.06;;;7.67;96.16
69784;BME280;57054;51.978;4.498;2023-04-21T01:42:12;101544.22;;;7.65;96.68
69784;BME280;57054;51.978;4.498;2023-04-21T01:44:38;101532.94;;;7.66;96.58
69784;BME280;57054;51.978;4.498;2023-04-21T01:47:06;101529.44;;;7.65;96.70
69784;BME280;57054;51.978;4.498;2023-04-21T01:49:31;101526.84;;;7.64;96.95
69784;BME280;57054;51.978;4.498;2023-04-21T01:51:57;101532.97;;;7.63;96.95
69784;BME280;57054;51.978;4.498;2023-04-21T01:54:22;101519.97;;;7.61;97.08
69784;BME280;57054;51.978;4.498;2023-04-21T01:56:47;101518.28;;;7.59;97.25
69784;BME280;57054;51.978;4.498;2023-04-21T01:59:13;101513.97;;;7.56;97.42
69784;BME280;57054;51.978;4.498;2023-04-21T02:01:38;101513.13;;;7.54;97.54
69784;BME280;57054;51.978;4.498;2023-04-21T02:04:04;101506.22;;;7.53;97.66
69784;BME280;57054;51.978;4.498;2023-04-21T02:06:29;101499.28;;;7.52;97.88
69784;BME280;57054;51.978;4.498;2023-04-21T02:08:57;101495.78;;;7.53;97.69
69784;BME280;57054;51.978;4.498;2023-04-21T02:11:23;101492.31;;;7.53;97.87
69784;BME280;57054;51.978;4.498;2023-04-21T02:13:51;101499.28;;;7.50;97.92
69784;BME280;57054;51.978;4.498;2023-04-21T02:16:16;101495.84;;;7.50;98.17
69784;BME280;57054;51.978;4.498;2023-04-21T02:18:42;101499.31;;;7.49;98.00
69784;BME280;57054;51.978;4.498;2023-04-21T02:21:08;101493.28;;;7.47;98.50
69784;BME280;57054;51.978;4.498;2023-04-21T02:23:34;101498.50;;;7.47;98.40
69784;BME280;57054;51.978;4.498;2023-04-21T02:25:59;101496.72;;;7.49;98.52
69784;BME280;57054;51.978;4.498;2023-04-21T02:28:25;101494.19;;;7.46;98.57
69784;BME280;57054;51.978;4.498;2023-04-21T02:30:50;101495.91;;;7.45;98.70
69784;BME280;57054;51.978;4.498;2023-04-21T02:33:15;101491.56;;;7.46;98.67
69784;BME280;57054;51.978;4.498;2023-04-21T02:35:41;101491.56;;;7.46;98.80
69784;BME280;57054;51.978;4.498;2023-04-21T02:38:06;101482.84;;;7.47;98.84
69784;BME280;57054;51.978;4.498;2023-04-21T02:40:33;101484.56;;;7.49;98.27
69784;BME280;57054;51.978;4.498;2023-04-21T02:42:58;101481.94;;;7.49;98.45
69784;BME280;57054;51.978;4.498;2023-04-21T02:45:24;101474.13;;;7.49;98.40
69784;BME280;57054;51.978;4.498;2023-04-21T02:47:49;101478.44;;;7.50;98.55
69784;BME280;57054;51.978;4.498;2023-04-21T02:50:15;101481.06;;;7.50;98.51
69784;BME280;57054;51.978;4.498;2023-04-21T02:52:40;101473.22;;;7.50;98.54
69784;BME280;57054;51.978;4.498;2023-04-21T02:55:06;101487.09;;;7.53;98.65
69784;BME280;57054;51.978;4.498;2023-04-21T02:57:31;101478.41;;;7.54;98.39
69784;BME280;57054;51.978;4.498;2023-04-21T02:59:57;101462.75;;;7.54;98.18
69784;BME280;57054;51.978;4.498;2023-04-21T03:02:22;101469.66;;;7.55;98.19
69784;BME280;57054;51.978;4.498;2023-04-21T03:04:47;101460.09;;;7.57;98.24
69784;BME280;57054;51.978;4.498;2023-04-21T03:07:13;101470.44;;;7.61;98.34
69784;BME280;57054;51.978;4.498;2023-04-21T03:09:39;101474.69;;;7.65;98.09
69784;BME280;57054;51.978;4.498;2023-04-21T03:12:05;101475.47;;;7.71;97.93
69784;BME280;57054;51.978;4.498;2023-04-21T03:14:30;101475.41;;;7.75;97.66
69784;BME280;57054;51.978;4.498;2023-04-21T03:16:56;101473.59;;;7.79;97.03
69784;BME280;57054;51.978;4.498;2023-04-21T03:19:21;101473.50;;;7.83;96.78
69784;BME280;57054;51.978;4.498;2023-04-21T03:21:46;101467.38;;;7.86;96.43
69784;BME280;57054;51.978;4.498;2023-04-21T03:24:12;101457.78;;;7.86;95.88
69784;BME280;57054;51.978;4.498;2023-04-21T03:26:38;101449.91;;;7.90;95.72
69784;BME280;57054;51.978;4.498;2023-04-21T03:29:04;101449.03;;;7.89;96.08
69784;BME280;57054;51.978;4.498;2023-04-21T03:31:30;101446.41;;;7.91;95.52
69784;BME280;57054;51.978;4.498;2023-04-21T03:33:55;101448.19;;;7.88;95.87
69784;BME280;57054;51.978;4.498;2023-04-21T03:36:21;101446.53;;;7.84;96.13
69784;BME280;57054;51.978;4.498;2023-04-21T03:38:46;101443.13;;;7.81;96.42
69784;BME280;57054;51.978;4.498;2023-04-21T03:41:12;101440.56;;;7.79;96.87
69784;BME280;57054;51.978;4.498;2023-04-21T03:43:37;101429.22;;;7.80;97.04
69784;BME280;57054;51.978;4.498;2023-04-21T03:46:02;101424.91;;;7.79;97.17
69784;BME280;57054;51.978;4.498;2023-04-21T03:48:28;101430.97;;;7.80;97.40
69784;BME280;57054;51.978;4.498;2023-04-21T03:50:53;101423.16;;;7.80;97.28
69784;BME280;57054;51.978;4.498;2023-04-21T03:53:19;101423.19;;;7.78;97.42
69784;BME280;57054;51.978;4.498;2023-04-21T03:55:44;101427.50;;;7.79;97.68
69784;BME280;57054;51.978;4.498;2023-04-21T03:58:14;101431.06;;;7.75;98.08
69784;BME280;57054;51.978;4.498;2023-04-21T04:00:39;101420.69;;;7.74;98.16
69784;BME280;57054;51.978;4.498;2023-04-21T04:03:05;101413.69;;;7.74;98.34
69784;BME280;57054;51.978;4.498;2023-04-21T04:05:31;101415.44;;;7.75;98.17
69784;BME280;57054;51.978;4.498;2023-04-21T04:07:57;101414.50;;;7.78;98.25
69784;BME280;57054;51.978;4.498;2023-04-21T04:10:22;101407.50;;;7.80;98.03
69784;BME280;57054;51.978;4.498;2023-04-21T04:12:48;101415.31;;;7.81;97.59
69784;BME280;57054;51.978;4.498;2023-04-21T04:15:13;101415.34;;;7.78;97.69
69784;BME280;57054;51.978;4.498;2023-04-21T04:17:39;101410.28;;;7.72;97.85
69784;BME280;57054;51.978;4.498;2023-04-21T04:20:06;101414.66;;;7.70;98.25
69784;BME280;57054;51.978;4.498;2023-04-21T04:22:32;101417.28;;;7.68;98.34
69784;BME280;57054;51.978;4.498;2023-04-21T04:24:58;101416.44;;;7.68;98.53
69784;BME280;57054;51.978;4.498;2023-04-21T04:27:25;101402.50;;;7.69;98.52
69784;BME280;57054;51.978;4.498;2023-04-21T04:29:51;101409.44;;;7.70;98.42
69784;BME280;57054;51.978;4.498;2023-04-21T04:32:17;101409.41;;;7.73;98.36
69784;BME280;57054;51.978;4.498;2023-04-21T04:34:43;101411.94;;;7.75;98.31
69784;BME280;57054;51.978;4.498;2023-04-21T04:37:08;101419.75;;;7.76;98.66
69784;BME280;57054;51.978;4.498;2023-04-21T04:39:35;101413.69;;;7.76;98.28
69784;BME280;57054;51.978;4.498;2023-04-21T04:42:01;101412.81;;;7.77;98.38
69784;BME280;57054;51.978;4.498;2023-04-21T04:44:28;101412.81;;;7.77;98.48
69784;BME280;57054;51.978;4.498;2023-04-21T04:46:53;101408.44;;;7.77;98.38
69784;BME280;57054;51.978;4.498;2023-04-21T04:49:19;101419.69;;;7.79;98.44
69784;BME280;57054;51.978;4.498;2023-04-21T04:51:44;101417.94;;;7.80;98.38
69784;BME280;57054;51.978;4.498;2023-04-21T04:54:10;101415.31;;;7.80;98.31
69784;BME280;57054;51.978;4.498;2023-04-21T04:56:35;101418.78;;;7.80;98.68
69784;BME280;57054;51.978;4.498;2023-04-21T04:59:01;101407.44;;;7.83;98.64
69784;BME280;57054;51.978;4.498;2023-04-21T05:01:27;101420.47;;;7.84;98.49
69784;BME280;57054;51.978;4.498;2023-04-21T05:03:55;101429.13;;;7.86;98.42
69784;BME280;57054;51.978;4.498;2023-04-21T05:06:21;101429.13;;;7.86;98.60
69784;BME280;57054;51.978;4.498;2023-04-21T05:08:47;101422.16;;;7.85;98.72
69784;BME280;57054;51.978;4.498;2023-04-21T05:11:12;101427.41;;;7.84;98.38
69784;BME280;57054;51.978;4.498;2023-04-21T05:13:38;101428.28;;;7.84;98.82
69784;BME280;57054;51.978;4.498;2023-04-21T05:16:03;101426.56;;;7.83;99.04
69784;BME280;57054;51.978;4.498;2023-04-21T05:18:29;101418.72;;;7.83;98.87
69784;BME280;57054;51.978;4.498;2023-04-21T05:20:54;101423.09;;;7.83;99.11
69784;BME280;57054;51.978;4.498;2023-04-21T05:23:20;101414.44;;;7.81;99.77
69784;BME280;57054;51.978;4.498;2023-04-21T05:25:46;101417.94;;;7.80;100.00
69784;BME280;57054;51.978;4.498;2023-04-21T05:28:12;101424.06;;;7.79;100.00
69784;BME280;57054;51.978;4.498;2023-04-21T05:30:37;101422.31;;;7.78;100.00
69784;BME280;57054;51.978;4.498;2023-04-21T05:33:03;101419.72;;;7.78;100.00
69784;BME280;57054;51.978;4.498;2023-04-21T05:35:32;101423.19;;;7.78;100.00
69784;BME280;57054;51.978;4.498;2023-04-21T05:37:57;101427.53;;;7.78;100.00
69784;BME280;57054;51.978;4.498;2023-04-21T05:40:22;101436.28;;;7.77;100.00
69784;BME280;57054;51.978;4.498;2023-04-21T05:42:48;101431.06;;;7.77;100.00
69784;BME280;57054;51.978;4.498;2023-04-21T05:45:13;101439.72;;;7.77;100.00
69784;BME280;57054;51.978;4.498;2023-04-21T05:47:38;101432.78;;;7.76;100.00
69784;BME280;57054;51.978;4.498;2023-04-21T05:50:05;101438.91;;;7.75;100.00
69784;BME280;57054;51.978;4.498;2023-04-21T05:52:31;101438.03;;;7.75;100.00
69784;BME280;57054;51.978;4.498;2023-04-21T05:54:57;101438.00;;;7.76;100.00
69784;BME280;57054;51.978;4.498;2023-04-21T05:57:24;101438.88;;;7.77;100.00
69784;BME280;57054;51.978;4.498;2023-04-21T05:59:49;101444.94;;;7.77;100.00
69784;BME280;57054;51.978;4.498;2023-04-21T06:02:14;101444.94;;;7.77;100.00
69784;BME280;57054;51.978;4.498;2023-04-21T06:04:40;101451.84;;;7.80;100.00
69784;BME280;57054;51.978;4.498;2023-04-21T06:07:09;101450.06;;;7.80;100.00
69784;BME280;57054;51.978;4.498;2023-04-21T06:09:37;101450.03;;;7.82;100.00
69784;BME280;57054;51.978;4.498;2023-04-21T06:12:03;101447.41;;;7.83;100.00
69784;BME280;57054;51.978;4.498;2023-04-21T06:14:29;101446.50;;;7.86;100.00
69784;BME280;57054;51.978;4.498;2023-04-21T06:16:54;101447.38;;;7.86;100.00
69784;BME280;57054;51.978;4.498;2023-04-21T06:19:20;101444.75;;;7.86;100.00
69784;BME280;57054;51.978;4.498;2023-04-21T06:21:45;101442.97;;;7.88;100.00
69784;BME280;57054;51.978;4.498;2023-04-21T06:24:10;101452.53;;;7.90;100.00
69784;BME280;57054;51.978;4.498;2023-04-21T06:26:36;101449.00;;;7.92;100.00
69784;BME280;57054;51.978;4.498;2023-04-21T06:29:01;101447.22;;;7.94;100.00
69784;BME280;57054;51.978;4.498;2023-04-21T06:31:26;101448.97;;;7.94;100.00
69784;BME280;57054;51.978;4.498;2023-04-21T06:33:52;101449.78;;;7.96;100.00
69784;BME280;57054;51.978;4.498;2023-04-21T06:36:17;101450.63;;;7.98;100.00
69784;BME280;57054;51.978;4.498;2023-04-21T06:38:43;101448.00;;;7.98;100.00
69784;BME280;57054;51.978;4.498;2023-04-21T06:41:08;101439.31;;;7.99;100.00
69784;BME280;57054;51.978;4.498;2023-04-21T06:43:34;101446.22;;;8.00;100.00
69784;BME280;57054;51.978;4.498;2023-04-21T06:46:00;101442.75;;;8.01;100.00
69784;BME280;57054;51.978;4.498;2023-04-21T06:48:25;101450.53;;;8.02;100.00
69784;BME280;57054;51.978;4.498;2023-04-21T06:50:52;101441.75;;;8.06;100.00
69784;BME280;57054;51.978;4.498;2023-04-21T06:53:17;101442.56;;;8.08;100.00
69784;BME280;57054;51.978;4.498;2023-04-21T06:55:43;101442.53;;;8.12;100.00
69784;BME280;57054;51.978;4.498;2023-04-21T06:58:08;101444.19;;;8.14;100.00
69784;BME280;57054;51.978;4.498;2023-04-21T07:00:34;101438.94;;;8.16;100.00
69784;BME280;57054;51.978;4.498;2023-04-21T07:02:59;101428.50;;;8.16;100.00
69784;BME280;57054;51.978;4.498;2023-04-21T07:05:24;101441.53;;;8.17;100.00
69784;BME280;57054;51.978;4.498;2023-04-21T07:07:50;101437.97;;;8.20;100.00
69784;BME280;57054;51.978;4.498;2023-04-21T07:10:15;101436.28;;;8.19;100.00
69784;BME280;57054;51.978;4.498;2023-04-21T07:12:44;101434.50;;;8.21;100.00
69784;BME280;57054;51.978;4.498;2023-04-21T07:15:10;101437.97;;;8.20;100.00
69784;BME280;57054;51.978;4.498;2023-04-21T07:17:36;101435.34;;;8.21;100.00
69784;BME280;57054;51.978;4.498;2023-04-21T07:20:01;101437.94;;;8.23;100.00
69784;BME280;57054;51.978;4.498;2023-04-21T07:22:27;101433.56;;;8.23;100.00
69784;BME280;57054;51.978;4.498;2023-04-21T07:24:52;101433.53;;;8.25;100.00
69784;BME280;57054;51.978;4.498;2023-04-21T07:27:17;101431.75;;;8.27;100.00
69784;BME280;57054;51.978;4.498;2023-04-21T07:29:43;101437.75;;;8.31;100.00
69784;BME280;57054;51.978;4.498;2023-04-21T07:32:09;101432.53;;;8.31;100.00
69784;BME280;57054;51.978;4.498;2023-04-21T07:34:34;101435.94;;;8.34;100.00
69784;BME280;57054;51.978;4.498;2023-04-21T07:37:00;101430.69;;;8.36;100.00
69784;BME280;57054;51.978;4.498;2023-04-21T07:39:25;101437.53;;;8.41;100.00
69784;BME280;57054;51.978;4.498;2023-04-21T07:41:50;101434.84;;;8.46;100.00
69784;BME280;57054;51.978;4.498;2023-04-21T07:44:16;101444.34;;;8.50;100.00
69784;BME280;57054;51.978;4.498;2023-04-21T07:46:41;101446.81;;;8.55;100.00
69784;BME280;57054;51.978;4.498;2023-04-21T07:49:07;101444.97;;;8.60;100.00
69784;BME280;57054;51.978;4.498;2023-04-21T07:51:32;101437.06;;;8.63;100.00
69784;BME280;57054;51.978;4.498;2023-04-21T07:53:58;101439.63;;;8.66;100.00
69784;BME280;57054;51.978;4.498;2023-04-21T07:56:24;101447.34;;;8.71;100.00
69784;BME280;57054;51.978;4.498;2023-04-21T07:58:49;101448.09;;;8.76;100.00
69784;BME280;57054;51.978;4.498;2023-04-21T08:01:15;101450.66;;;8.79;100.00
69784;BME280;57054;51.978;4.498;2023-04-21T08:03:40;101439.19;;;8.84;100.00
69784;BME280;57054;51.978;4.498;2023-04-21T08:06:06;101437.34;;;8.90;100.00
69784;BME280;57054;51.978;4.498;2023-04-21T08:08:31;101442.41;;;8.96;100.00
69784;BME280;57054;51.978;4.498;2023-04-21T08:10:57;101441.41;;;9.00;100.00
69784;BME280;57054;51.978;4.498;2023-04-21T08:13:22;101434.38;;;9.03;99.78
69784;BME280;57054;51.978;4.498;2023-04-21T08:15:53;101434.28;;;9.07;98.92
69784;BME280;57054;51.978;4.498;2023-04-21T08:18:18;101434.16;;;9.11;98.80
69784;BME280;57054;51.978;4.498;2023-04-21T08:20:44;101439.25;;;9.17;98.75
69784;BME280;57054;51.978;4.498;2023-04-21T08:23:12;101428.56;;;9.27;99.25
69784;BME280;57054;51.978;4.498;2023-04-21T08:25:38;101431.88;;;9.33;98.91
69784;BME280;57054;51.978;4.498;2023-04-21T08:28:03;101435.19;;;9.40;97.61
69784;BME280;57054;51.978;4.498;2023-04-21T08:30:29;101432.53;;;9.41;96.47
69784;BME280;57054;51.978;4.498;2023-04-21T08:32:54;101434.16;;;9.46;96.40
69784;BME280;57054;51.978;4.498;2023-04-21T08:35:20;101434.13;;;9.47;96.08
69784;BME280;57054;51.978;4.498;2023-04-21T08:37:45;101434.88;;;9.52;96.34
69784;BME280;57054;51.978;4.498;2023-04-21T08:40:11;101431.22;;;9.58;96.16
69784;BME280;57054;51.978;4.498;2023-04-21T08:42:37;101433.84;;;9.58;93.93
69784;BME280;57054;51.978;4.498;2023-04-21T08:45:04;101432.03;;;9.60;93.56
69784;BME280;57054;51.978;4.498;2023-04-21T08:47:31;101428.38;;;9.66;93.63
69784;BME280;57054;51.978;4.498;2023-04-21T08:49:58;101426.50;;;9.71;93.28
69784;BME280;57054;51.978;4.498;2023-04-21T08:52:24;101430.72;;;9.76;93.02
69784;BME280;57054;51.978;4.498;2023-04-21T08:54:49;101425.41;;;9.79;92.23
69784;BME280;57054;51.978;4.498;2023-04-21T08:57:17;101418.38;;;9.82;92.24
69784;BME280;57054;51.978;4.498;2023-04-21T08:59:44;101421.78;;;9.84;92.41
69784;BME280;57054;51.978;4.498;2023-04-21T09:02:13;101412.09;;;9.87;91.82
69784;BME280;57054;51.978;4.498;2023-04-21T09:04:44;101422.34;;;9.95;91.84
69784;BME280;57054;51.978;4.498;2023-04-21T09:07:10;101419.59;;;9.99;90.53
69784;BME280;57054;51.978;4.498;2023-04-21T09:10:06;101420.25;;;10.08;90.93
69784;BME280;57054;51.978;4.498;2023-04-21T09:12:32;101418.38;;;10.11;90.75
69784;BME280;57054;51.978;4.498;2023-04-21T09:14:57;101420.06;;;10.14;89.92
69784;BME280;57054;51.978;4.498;2023-04-21T09:17:30;101424.28;;;10.18;90.46
69784;BME280;57054;51.978;4.498;2023-04-21T09:20:17;101419.75;;;10.25;91.25
69784;BME280;57054;51.978;4.498;2023-04-21T09:22:43;101411.72;;;10.31;90.99
69784;BME280;57054;51.978;4.498;2023-04-21T09:25:09;101423.72;;;10.38;89.69
69784;BME280;57054;51.978;4.498;2023-04-21T09:27:35;101418.25;;;10.46;87.45
69784;BME280;57054;51.978;4.498;2023-04-21T09:30:02;101421.69;;;10.48;86.64
69784;BME280;57054;51.978;4.498;2023-04-21T09:32:28;101423.34;;;10.50;86.76
69784;BME280;57054;51.978;4.498;2023-04-21T09:34:58;101418.94;;;10.52;86.80
69784;BME280;57054;51.978;4.498;2023-04-21T09:37:24;101426.66;;;10.57;86.32
69784;BME280;57054;51.978;4.498;2023-04-21T09:39:49;101417.75;;;10.63;87.17
69784;BME280;57054;51.978;4.498;2023-04-21T09:42:15;101418.53;;;10.65;85.68
69784;BME280;57054;51.978;4.498;2023-04-21T09:44:40;101416.72;;;10.67;84.91
69784;BME280;57054;51.978;4.498;2023-04-21T09:47:09;101404.47;;;10.67;85.26
69784;BME280;57054;51.978;4.498;2023-04-21T09:49:35;101404.44;;;10.69;86.25
69784;BME280;57054;51.978;4.498;2023-04-21T09:52:01;101409.69;;;10.69;86.78
69784;BME280;57054;51.978;4.498;2023-04-21T09:54:31;101408.75;;;10.71;87.03
69784;BME280;57054;51.978;4.498;2023-04-21T09:56:59;101404.31;;;10.73;87.44
69784;BME280;57054;51.978;4.498;2023-04-21T09:59:34;101410.22;;;10.79;87.05
69784;BME280;57054;51.978;4.498;2023-04-21T10:02:00;101402.22;;;10.83;86.84
69784;BME280;57054;51.978;4.498;2023-04-21T10:04:30;101403.88;;;10.86;85.17
69784;BME280;57054;51.978;4.498;2023-04-21T10:06:55;101408.22;;;10.87;85.04
69784;BME280;57054;51.978;4.498;2023-04-21T10:09:22;101410.72;;;10.91;84.52
69784;BME280;57054;51.978;4.498;2023-04-21T10:11:50;101400.91;;;10.97;84.43
69784;BME280;57054;51.978;4.498;2023-04-21T10:14:16;101403.34;;;11.03;84.18
69784;BME280;57054;51.978;4.498;2023-04-21T10:16:42;101402.22;;;11.10;83.97
69784;BME280;57054;51.978;4.498;2023-04-21T10:19:24;101393.25;;;11.17;83.16
69784;BME280;57054;51.978;4.498;2023-04-21T10:21:50;101396.44;;;11.25;82.71
69784;BME280;57054;51.978;4.498;2023-04-21T10:24:15;101392.59;;;11.36;84.18
69784;BME280;57054;51.978;4.498;2023-04-21T10:26:41;101387.97;;;11.42;83.29
69784;BME280;57054;51.978;4.498;2023-04-21T10:29:07;101384.31;;;11.48;83.27
69784;BME280;57054;51.978;4.498;2023-04-21T10:31:51;101372.59;;;11.57;82.95
69784;BME280;57054;51.978;4.498;2023-04-21T10:34:37;101377.47;;;11.67;82.59
69784;BME280;57054;51.978;4.498;2023-04-21T10:39:36;101365.31;;;11.90;82.10
69784;BME280;57054;51.978;4.498;2023-04-21T10:42:22;101362.28;;;12.01;80.70
69784;BME280;57054;51.978;4.498;2023-04-21T10:49:50;101349.59;;;12.12;77.40
69784;BME280;57054;51.978;4.498;2023-04-21T10:52:15;101350.31;;;12.16;78.29
69784;BME280;57054;51.978;4.498;2023-04-21T10:54:42;101355.47;;;12.19;77.88
69784;BME280;57054;51.978;4.498;2023-04-21T10:57:14;101351.66;;;12.26;78.00
69784;BME280;57054;51.978;4.498;2023-04-21T10:59:40;101348.59;;;12.37;77.08
69784;BME280;57054;51.978;4.498;2023-04-21T11:02:07;101350.06;;;12.44;76.52
69784;BME280;57054;51.978;4.498;2023-04-21T11:04:33;101345.53;;;12.47;76.08
69784;BME280;57054;51.978;4.498;2023-04-21T11:07:11;101333.03;;;12.54;77.17
69784;BME280;57054;51.978;4.498;2023-04-21T11:09:37;101339.72;;;12.61;77.66
69784;BME280;57054;51.978;4.498;2023-04-21T11:12:14;101329.84;;;12.68;77.21
69784;BME280;57054;51.978;4.498;2023-04-21T11:14:41;101334.72;;;12.77;76.29
69784;BME280;57054;51.978;4.498;2023-04-21T11:17:12;101329.06;;;12.86;76.85
69784;BME280;57054;51.978;4.498;2023-04-21T11:19:37;101314.69;;;12.95;76.06
69784;BME280;57054;51.978;4.498;2023-04-21T11:22:03;101321.22;;;13.05;75.75
69784;BME280;57054;51.978;4.498;2023-04-21T11:24:30;101313.94;;;13.12;76.54
69784;BME280;57054;51.978;4.498;2023-04-21T11:26:56;101311.91;;;13.19;75.40
69784;BME280;57054;51.978;4.498;2023-04-21T11:29:23;101312.41;;;13.27;76.36
69784;BME280;57054;51.978;4.498;2023-04-21T11:31:49;101310.50;;;13.31;75.60
69784;BME280;57054;51.978;4.498;2023-04-21T11:34:15;101304.25;;;13.33;74.69
69784;BME280;57054;51.978;4.498;2023-04-21T11:36:45;101300.00;;;13.31;73.67
69784;BME280;57054;51.978;4.498;2023-04-21T11:39:13;101293.97;;;13.27;71.85
69784;BME280;57054;51.978;4.498;2023-04-21T11:41:44;101290.56;;;13.25;72.52
69784;BME280;57054;51.978;4.498;2023-04-21T11:44:11;101290.50;;;13.27;73.15
69784;BME280;57054;51.978;4.498;2023-04-21T11:46:37;101282.47;;;13.30;73.21
69784;BME280;57054;51.978;4.498;2023-04-21T11:49:13;101278.66;;;13.37;73.82
69784;BME280;57054;51.978;4.498;2023-04-21T11:51:42;101280.09;;;13.44;73.81
69784;BME280;57054;51.978;4.498;2023-04-21T11:54:12;101276.97;;;13.55;74.76
69784;BME280;57054;51.978;4.498;2023-04-21T11:56:40;101279.16;;;13.64;73.94
69784;BME280;57054;51.978;4.498;2023-04-21T11:59:10;101272.09;;;13.66;72.64
69784;BME280;57054;51.978;4.498;2023-04-21T12:01:46;101271.28;;;13.64;72.46
69784;BME280;57054;51.978;4.498;2023-04-21T12:04:20;101272.28;;;13.61;72.42
69784;BME280;57054;51.978;4.498;2023-04-21T12:06:46;101272.28;;;13.61;72.38
69784;BME280;57054;51.978;4.498;2023-04-21T12:09:16;101267.31;;;13.55;72.07
69784;BME280;57054;51.978;4.498;2023-04-21T12:11:46;101264.25;;;13.46;72.00
69784;BME280;57054;51.978;4.498;2023-04-21T12:14:16;101257.41;;;13.41;73.19
69784;BME280;57054;51.978;4.498;2023-04-21T12:16:42;101250.97;;;13.49;73.29
69784;BME280;57054;51.978;4.498;2023-04-21T12:19:07;101254.78;;;13.60;74.21
69784;BME280;57054;51.978;4.498;2023-04-21T12:21:36;101258.56;;;13.74;73.88
69784;BME280;57054;51.978;4.498;2023-04-21T12:24:03;101250.16;;;13.85;72.91
69784;BME280;57054;51.978;4.498;2023-04-21T12:26:29;101248.84;;;13.93;73.04
69784;BME280;57054;51.978;4.498;2023-04-21T12:28:54;101247.47;;;14.04;72.85
69784;BME280;57054;51.978;4.498;2023-04-21T12:31:20;101250.75;;;14.09;71.79
69784;BME280;57054;51.978;4.498;2023-04-21T12:33:45;101250.44;;;14.15;71.98
69784;BME280;57054;51.978;4.498;2023-04-21T12:36:11;101242.31;;;14.19;71.59
69784;BME280;57054;51.978;4.498;2023-04-21T12:38:36;101242.19;;;14.23;70.26
69784;BME280;57054;51.978;4.498;2023-04-21T12:41:02;101243.94;;;14.22;70.66
69784;BME280;57054;51.978;4.498;2023-04-21T12:43:28;101237.19;;;14.16;70.32
69784;BME280;57054;51.978;4.498;2023-04-21T12:45:54;101237.44;;;14.12;69.60
69784;BME280;57054;51.978;4.498;2023-04-21T12:48:20;101240.34;;;14.06;69.15
69784;BME280;57054;51.978;4.498;2023-04-21T12:50:45;101228.91;;;14.07;70.00
69784;BME280;57054;51.978;4.498;2023-04-21T12:53:11;101228.72;;;14.10;69.86
69784;BME280;57054;51.978;4.498;2023-04-21T12:55:37;101231.53;;;14.07;70.57
69784;BME280;57054;51.978;4.498;2023-04-21T12:58:02;101224.72;;;14.02;69.85
69784;BME280;57054;51.978;4.498;2023-04-21T13:00:28;101224.63;;;14.04;69.77